Latest Weather Observations for Terrey Hills

IDN60801

Issued at 6:02 pm EST Thursday 28 May 2015 (issued every 30 minutes, with the page automatically refreshed every 10 minutes)

About weather observations | Map of weather stations | Latest weather observations for NSW | Other Formats
Station Details ID: 066059 Name: TERREY HILLS AWS Lat: -33.69 Lon: 151.23 Height: 199.0 m
Data from the previous 72 hours. | See also: Recent months at Terrey Hills
Date/Time
EST
Temp
°C
App
Temp
°C
Dew
Point
Rel
Hum
%
Delta-T
°C
Wind Press
QNH
hPa
Press
MSL
hPa
Rain
since 9 am
mm
Dir
 
Spd
km/h
Gust
km/h
Spd
kts
Gust
kts
28/06:00pm 16.9 16.7 13.0 78 2.2 NNW 6 9 3 5 - - 0.0
28/05:30pm 17.2 16.9 12.7 75 2.5 N 6 7 3 4 - - 0.0
28/05:00pm 17.4 17.0 12.5 73 2.7 N 6 9 3 5 - - 0.0
28/04:30pm 18.1 18.2 12.8 71 3.0 N 4 6 2 3 - - 0.0
28/04:00pm 19.0 18.6 12.3 65 3.8 N 6 9 3 5 - - 0.0
28/03:30pm 18.9 18.6 12.6 67 3.6 N 6 11 3 6 - - 0.0
28/03:00pm 19.4 18.6 11.7 61 4.3 NNW 7 9 4 5 - - 0.0
28/02:30pm 20.1 19.4 11.3 57 4.9 NNW 6 9 3 5 - - 0.0
28/02:00pm 19.3 18.7 11.6 61 4.3 N 6 9 3 5 - - 0.0
28/01:30pm 19.0 18.1 10.6 58 4.6 N 6 9 3 5 - - 0.0
28/01:00pm 20.2 19.4 11.1 56 5.0 N 6 9 3 5 - - 0.0
28/12:30pm 20.4 19.5 10.8 54 5.3 NW 6 9 3 5 - - 0.0
28/12:00pm 19.7 18.9 10.9 57 4.8 NNW 6 9 3 5 - - 0.0
28/11:30am 19.6 19.1 11.9 61 4.3 NW 6 11 3 6 - - 0.0
28/11:00am 18.3 17.8 12.1 67 3.5 NW 6 11 3 6 - - 0.0
28/10:30am 16.6 15.7 11.5 72 2.8 W 7 9 4 5 - - 0.0
28/10:00am 15.8 15.1 11.4 75 2.4 W 6 9 3 5 - - 0.0
28/09:30am 15.5 14.8 11.3 76 2.3 WNW 6 7 3 4 - - 0.0
28/09:00am 14.9 14.2 11.5 80 1.8 NW 6 7 3 4 - - 0.0
28/08:30am 13.6 12.6 11.1 85 1.3 NW 7 11 4 6 - - 0.0
28/08:00am 12.5 11.7 11.7 95 0.4 NW 7 9 4 5 - - 0.0
28/07:30am 10.0 8.3 9.9 99 0.1 WNW 9 11 5 6 - - 0.0
28/07:00am 9.5 7.3 9.2 98 0.1 WNW 11 13 6 7 - - 0.0
28/06:30am 10.0 8.7 9.9 99 0.1 WNW 7 9 4 5 - - 0.0
28/06:00am 10.0 8.3 9.7 98 0.2 WNW 9 13 5 7 - - 0.0
28/05:30am 10.0 8.6 9.7 98 0.2 WNW 7 9 4 5 - - 0.0
28/05:00am 10.3 8.6 10.0 98 0.2 WNW 9 13 5 7 - - 0.0
28/04:30am 10.2 8.6 10.1 99 0.1 WNW 9 11 5 6 - - 0.0
28/04:00am 10.2 8.1 9.7 97 0.3 WNW 11 13 6 7 - - 0.0
28/03:30am 10.6 8.6 10.0 96 0.3 WNW 11 13 6 7 - - 0.0
28/03:00am 10.6 9.0 10.1 97 0.3 WNW 9 11 5 6 - - 0.0
28/02:30am 10.4 8.3 9.8 96 0.3 WNW 11 13 6 7 - - 0.0
28/02:00am 10.3 8.2 9.7 96 0.3 WNW 11 15 6 8 - - 0.0
28/01:30am 10.4 8.3 9.8 96 0.3 W 11 13 6 7 - - 0.0
28/01:00am 10.4 8.3 9.6 95 0.4 W 11 15 6 8 - - 0.0
28/12:30am 11.0 9.3 9.8 92 0.6 W 9 13 5 7 - - 0.0
28/12:00am 11.3 9.6 9.7 90 0.8 W 9 11 5 6 - - 0.0
 
Date/Time
EST
Temp
°C
App
Temp
°C
Dew
Point
Rel
Hum
%
Delta-T
°C
Wind Press
QNH
hPa
Press
MSL
hPa
Rain
since 9 am
mm
Dir
 
Spd
km/h
Gust
km/h
Spd
kts
Gust
kts
27/11:30pm 12.0 10.0 10.1 88 1.0 W 11 13 6 7 - - 0.0
27/11:00pm 11.4 9.3 9.7 89 0.9 WNW 11 13 6 7 - - 0.0
27/10:30pm 11.9 10.1 9.5 85 1.2 W 9 13 5 7 - - 0.0
27/10:00pm 12.4 10.6 9.6 83 1.4 W 9 13 5 7 - - 0.0
27/09:30pm 12.4 10.6 9.6 83 1.4 W 9 13 5 7 - - 0.0
27/09:00pm 12.8 11.0 9.6 81 1.6 WNW 9 11 5 6 - - 0.0
27/08:30pm 13.0 11.3 9.8 81 1.7 WNW 9 13 5 7 - - 0.0
27/08:00pm 12.7 11.3 9.5 81 1.6 WNW 7 11 4 6 - - 0.0
27/07:30pm 12.9 11.5 9.4 79 1.8 WNW 7 11 4 6 - - 0.0
27/07:00pm 13.5 12.1 9.4 76 2.1 NW 7 11 4 6 - - 0.0
27/06:30pm 13.9 12.4 9.1 73 2.5 NW 7 13 4 7 - - 0.0
27/06:00pm 13.4 12.0 8.7 73 2.4 NW 6 7 3 4 - - 0.0
27/05:30pm 14.2 12.8 9.0 71 2.7 NW 6 9 3 5 - - 0.0
27/05:00pm 14.4 13.5 9.4 72 2.6 NW 4 7 2 4 - - 0.0
27/04:30pm 15.2 14.4 9.8 70 2.8 WNW 4 6 2 3 - - 0.0
27/04:00pm 16.5 15.6 9.2 62 3.8 NW 4 6 2 3 - - 0.0
27/03:30pm 17.5 15.9 8.1 54 4.8 WNW 6 9 3 5 - - 0.0
27/03:00pm 18.8 17.2 7.9 49 5.6 WNW 6 9 3 5 - - 0.0
27/02:30pm 18.3 16.2 6.8 47 5.8 NW 7 13 4 7 - - 0.0
27/02:00pm 18.6 16.9 8.3 51 5.4 NW 7 13 4 7 - - 0.0
27/01:30pm 17.8 16.6 9.7 59 4.3 NW 6 9 3 5 - - 0.0
27/01:00pm 17.0 15.4 8.7 58 4.3 NW 7 13 4 7 - - 0.0
27/12:30pm 17.4 16.0 8.8 57 4.5 WSW 6 11 3 6 - - 0.0
27/12:00pm 18.2 16.8 9.0 55 4.8 WNW 6 9 3 5 - - 0.0
27/11:30am 17.5 16.0 8.4 55 4.7 NW 6 11 3 6 - - 0.0
27/11:00am 16.3 15.0 9.9 66 3.4 W 7 11 4 6 - - 0.0
27/10:30am 15.3 14.2 10.1 71 2.7 WNW 6 9 3 5 - - 0.0
27/10:00am 14.5 13.1 9.7 73 2.5 WNW 7 11 4 6 - - 0.0
27/09:30am 13.6 11.8 9.5 76 2.1 WNW 9 13 5 7 - - 0.0
27/09:00am 12.4 11.1 10.0 85 1.2 W 7 13 4 7 - - 0.0
27/08:30am 11.2 9.4 9.5 89 0.9 W 9 13 5 7 - - 0.0
27/08:00am 10.3 8.1 9.4 94 0.5 W 11 17 6 9 - - 0.0
27/07:30am 9.7 7.4 8.9 95 0.4 W 11 13 6 7 - - 0.0
27/07:00am 9.6 7.6 8.5 93 0.5 WNW 9 9 5 5 - - 0.0
27/06:30am 9.9 7.9 8.8 93 0.5 WNW 9 9 5 5 - - 0.0
27/06:00am 10.0 8.1 9.1 94 0.4 W 9 9 5 5 - - 0.0
27/05:30am 10.0 8.1 8.9 93 0.5 WNW 9 11 5 6 - - 0.0
27/05:00am 10.2 8.7 9.0 92 0.6 WNW 7 9 4 5 - - 0.0
27/04:30am 10.3 8.4 9.2 93 0.6 WNW 9 11 5 6 - - 0.0
27/04:00am 10.8 9.0 9.4 91 0.7 W 9 13 5 7 - - 0.0
27/03:30am 10.4 9.0 9.5 94 0.5 WNW 7 9 4 5 - - 0.0
27/03:00am 10.4 8.6 9.5 94 0.5 WNW 9 11 5 6 - - 0.0
27/02:30am 10.7 8.9 9.6 93 0.6 WNW 9 13 5 7 - - 0.0
27/02:00am 10.8 9.0 9.6 92 0.6 WNW 9 9 5 5 - - 0.0
27/01:30am 10.9 9.2 9.7 92 0.6 W 9 13 5 7 - - 0.0
27/01:00am 11.1 9.4 9.9 92 0.6 W 9 13 5 7 - - 0.0
27/12:30am 11.0 9.2 9.6 91 0.7 W 9 11 5 6 - - 0.0
27/12:00am 11.6 10.2 9.5 87 1.1 WNW 7 9 4 5 - - 0.0
 
Date/Time
EST
Temp
°C
App
Temp
°C
Dew
Point
Rel
Hum
%
Delta-T
°C
Wind Press
QNH
hPa
Press
MSL
hPa
Rain
since 9 am
mm
Dir
 
Spd
km/h
Gust
km/h
Spd
kts
Gust
kts
26/11:30pm 12.1 11.2 9.3 83 1.4 NNW 4 7 2 4 - - 0.0
26/11:00pm 11.7 10.4 9.8 88 1.0 W 7 9 4 5 - - 0.0
26/10:30pm 11.0 9.3 9.9 93 0.6 W 9 13 5 7 - - 0.0
26/10:00pm 11.6 9.9 9.7 88 1.0 W 9 11 5 6 - - 0.0
26/09:30pm 11.5 10.2 10.1 91 0.7 WNW 7 11 4 6 - - 0.0
26/09:00pm 11.8 10.5 10.0 89 0.9 W 7 9 4 5 - - 0.0
26/08:30pm 11.8 10.6 10.4 91 0.7 W 7 9 4 5 - - 0.0
26/08:00pm 11.4 9.9 10.5 94 0.5 WNW 9 9 5 5 - - 0.0
26/07:30pm 11.5 10.0 10.6 94 0.5 WNW 9 11 5 6 - - 0.0
26/07:00pm 11.7 10.6 10.6 93 0.6 WNW 7 9 4 5 - - 0.0
26/06:30pm 12.3 11.5 10.9 91 0.7 W 6 7 3 4 - - 0.0
26/06:00pm 12.3 11.4 10.5 89 0.9 WNW 6 6 3 3 - - 0.0
26/05:30pm 12.9 12.0 10.6 86 1.2 W 6 7 3 4 - - 0.0
26/05:00pm 13.3 12.6 10.1 81 1.7 WNW 4 6 2 3 - - 0.0
26/04:30pm 14.1 14.1 9.7 75 2.3 CALM 0 0 0 0 - - 0.0
26/04:00pm 15.7 15.8 10.0 69 3.0 CALM 0 0 0 0 - - 0.0
26/03:30pm 15.7 15.7 9.8 68 3.1 CALM 0 2 0 1 - - 0.0
26/03:00pm 15.6 14.7 9.3 66 3.3 SSW 4 6 2 3 - - 0.0
26/02:30pm 16.3 15.5 9.7 65 3.5 SW 4 7 2 4 - - 0.0
26/02:00pm 15.9 15.2 10.0 68 3.1 SW 4 7 2 4 - - 0.0
26/01:30pm 15.8 14.7 9.9 68 3.1 SW 6 9 3 5 - - 0.0
26/01:00pm 16.2 14.9 10.1 67 3.2 SSW 7 13 4 7 - - 0.0
26/12:30pm 16.8 15.6 10.4 66 3.4 SSW 7 13 4 7 - - 0.0
26/12:00pm 16.4 15.3 10.7 69 3.1 SSW 7 13 4 7 - - 0.0
26/11:30am 16.3 15.4 10.6 69 3.1 SW 6 13 3 7 - - 0.0
26/11:00am 15.8 14.9 10.8 72 2.7 W 6 11 3 6 - - 0.0
26/10:30am 13.9 12.4 9.1 73 2.5 W 7 13 4 7 - - 0.0
26/10:00am 12.8 10.8 8.5 75 2.2 W 9 13 5 7 - - 0.0
26/09:30am 11.7 9.5 8.0 78 1.8 WNW 9 15 5 8 - - 0.0
26/09:00am 10.3 7.1 6.8 79 1.7 WNW 13 17 7 9 - - 0.0
26/08:30am 9.4 6.2 6.7 83 1.3 W 13 17 7 9 - - 0.0
26/08:00am 8.1 4.7 6.1 87 0.9 W 13 15 7 8 - - 0.0
26/07:30am 8.2 4.7 5.5 83 1.2 W 13 19 7 10 - - 0.0
26/07:00am 7.5 4.1 5.8 89 0.8 W 13 17 7 9 - - 0.0
26/06:30am 7.4 4.0 6.0 91 0.6 W 13 17 7 9 - - 0.0
26/06:00am 7.2 3.8 5.8 91 0.6 W 13 15 7 8 - - 0.0
26/05:30am 8.1 4.7 5.7 85 1.1 W 13 19 7 10 - - 0.0
26/05:00am 8.1 4.7 5.9 86 1.0 W 13 17 7 9 - - 0.0
26/04:30am 9.1 6.0 5.5 78 1.6 WSW 11 17 6 9 - - 0.0
26/04:00am 8.7 5.7 6.2 84 1.2 WSW 11 19 6 10 - - 0.0
26/03:30am 8.2 5.8 6.8 91 0.7 WNW 9 13 5 7 - - 0.0
26/03:00am 8.5 5.4 7.3 92 0.6 W 13 17 7 9 - - 0.0
26/02:30am 8.6 5.6 7.5 93 0.5 W 13 17 7 9 - - 0.0
26/02:00am 8.9 6.3 7.7 92 0.6 W 11 17 6 9 - - 0.0
26/01:30am 8.8 6.3 8.2 96 0.3 W 11 15 6 8 - - 0.0
26/01:00am 9.2 6.8 8.6 96 0.3 W 11 17 6 9 - - 0.0
26/12:30am 9.3 6.9 8.8 97 0.2 WNW 11 13 6 7 - - 0.0
26/12:00am 9.8 7.8 8.7 93 0.5 W 9 13 5 7 - - 0.0
 
Date/Time
EST
Temp
°C
App
Temp
°C
Dew
Point
Rel
Hum
%
Delta-T
°C
Wind Press
QNH
hPa
Press
MSL
hPa
Rain
since 9 am
mm
Dir
 
Spd
km/h
Gust
km/h
Spd
kts
Gust
kts
25/11:30pm 10.0 7.6 8.6 91 0.7 W 11 13 6 7 - - 0.0
25/11:00pm 10.5 8.6 9.1 91 0.7 W 9 11 5 6 - - 0.0
25/10:30pm 11.1 9.2 9.2 88 1.0 W 9 11 5 6 - - 0.0
25/10:00pm 11.5 9.8 9.8 89 0.9 W 9 9 5 5 - - 0.0
25/09:30pm 11.4 9.8 10.3 93 0.6 W 9 9 5 5 - - 0.0
25/09:00pm 11.7 10.6 10.8 94 0.5 W 7 9 4 5 - - 0.0
25/08:30pm 11.6 10.5 10.8 95 0.4 WNW 7 9 4 5 - - 0.0
25/08:00pm 11.8 10.8 11.0 95 0.4 W 7 9 4 5 - - 0.0
25/07:30pm 12.0 11.0 10.9 93 0.6 WNW 7 9 4 5 - - 0.0
25/07:00pm 12.3 11.4 11.2 93 0.6 W 7 9 4 5 - - 0.0
25/06:30pm 12.3 11.2 10.5 89 0.9 W 7 7 4 4 - - 0.0

Other Formats:

Comma delimited format used in spreadsheet applications
http://www.bom.gov.au/fwo/IDN60801/IDN60801.94759.axf

JavaScript Object Notation format (JSON) in row-major order
http://www.bom.gov.au/fwo/IDN60801/IDN60801.94759.json